Weather reports worldwide

Advertisment
Tynset Ii, Norway (1265): temperature & dewpoint: 05.07.2020 15:00:00 - 11.07.2020 15:00:00 (CEST)Tynset Ii, Norway (1265): wind speed & gusts: 05.07.2020 15:00:00 - 11.07.2020 15:00:00 (CEST)Tynset Ii, Norway (1265): wind direction: 05.07.2020 15:00:00 - 11.07.2020 15:00:00 (CEST)Tynset Ii, Norway (1265): reduced air pressure: 05.07.2020 15:00:00 - 11.07.2020 15:00:00 (CEST)Tynset Ii, Norway (1265): precipitation: 05.07.2020 15:00:00 - 11.07.2020 15:00:00 (CEST)
Date & Time tt [°C] td [°C] ff [km/h] ff [kn] fx [km/h] fx [kn] dd ppp [hPa] rr [mm]
11.07.2020 15:00:00 12,1 4,4 14 8 23 13 E 1010,2 0,1
11.07.2020 14:00:00 12,4 7,3 8 4 19 10 ENE 1010,2 0,3
11.07.2020 13:00:00 11,8 6,9 10 5 18 10 ENE - 0,2
11.07.2020 12:00:00 8,6 4,2 16 9 42 23 NW - 1,1
11.07.2020 11:00:00 13,3 4,7 3 2 13 7 N - 0,0
11.07.2020 10:00:00 12,3 4,0 4 2 10 5 ENE - 0,0
11.07.2020 09:00:00 10,9 5,0 4 2 11 6 NE - 0,0
11.07.2020 08:00:00 10,4 6,2 5 3 9 5 E - 0,0
11.07.2020 07:00:00 7,2 5,5 3 2 5 3 S - 0,0
11.07.2020 06:00:00 6,8 5,7 6 3 13 7 SE - 0,0
11.07.2020 05:00:00 6,4 5,0 3 1 11 6 ENE - 0,0
11.07.2020 04:00:00 7,1 5,6 4 2 25 14 NE - 1,3
11.07.2020 03:00:00 7,2 6,3 3 2 8 4 WSW - 0,0
11.07.2020 02:00:00 6,4 5,7 0 0 7 4 N - 0,0
11.07.2020 01:00:00 6,7 5,8 3 2 7 4 WSW - 0,0
11.07.2020 00:00:00 6,4 5,0 3 2 9 5 W - 0,0
10.07.2020 23:00:00 8,6 6,2 5 3 9 5 WNW - 0,0
10.07.2020 22:00:00 10,4 6,2 5 3 9 5 NNW - 0,0
10.07.2020 21:00:00 11,5 5,8 5 3 11 6 E - 0,0
10.07.2020 20:00:00 12,5 5,4 5 3 18 10 ENE - 0,0
10.07.2020 19:00:00 12,7 4,7 9 5 21 11 NNW - 0,0
10.07.2020 18:00:00 14,1 3,3 4 2 16 8 WSW - 0,0
10.07.2020 17:00:00 14,8 3,6 13 7 24 13 ESE - 0,0
10.07.2020 16:00:00 11,3 5,2 12 7 23 12 SW - 0,0
10.07.2020 15:00:00 13,2 6,1 4 2 9 5 NW - 0,0
10.07.2020 14:00:00 11,2 7,1 8 4 15 8 ESE - 1,6
10.07.2020 13:00:00 8,0 6,0 11 6 30 16 SSW - 1,6
10.07.2020 12:00:00 13,3 3,4 8 4 13 7 NNW - 0,0
10.07.2020 11:00:00 13,3 5,7 6 4 11 6 E - 0,0
10.07.2020 10:00:00 11,6 6,1 4 2 8 4 E - 0,0
10.07.2020 09:00:00 10,3 5,7 2 1 8 4 NNW - 0,0
10.07.2020 08:00:00 7,6 5,1 3 2 7 4 NE - 0,0
10.07.2020 07:00:00 5,4 4,0 2 1 7 4 E - 0,0
10.07.2020 06:00:00 4,8 3,9 2 1 12 6 ENE - 0,0
10.07.2020 05:00:00 5,3 4,7 5 3 9 5 NE - 0,0
10.07.2020 04:00:00 5,3 4,7 3 2 6 3 NNE - 0,0
10.07.2020 03:00:00 6,0 5,6 3 2 6 3 ENE - 0,0
10.07.2020 02:00:00 6,0 5,4 2 1 5 3 E - 0,0
10.07.2020 01:00:00 6,2 5,5 3 1 4 2 ESE - 0,0
10.07.2020 00:00:00 7,3 6,5 3 2 7 4 NW - 0,1
09.07.2020 23:00:00 7,7 7,0 1 1 6 4 E - 0,0
09.07.2020 22:00:00 8,1 6,9 2 1 7 4 NNW - 0,3
09.07.2020 21:00:00 8,4 7,0 5 3 11 6 N - 0,4
09.07.2020 20:00:00 9,0 7,0 5 3 14 8 NNE - 1,0
09.07.2020 19:00:00 10,8 6,2 5 3 11 6 NE - 0,0
09.07.2020 18:00:00 10,8 6,9 7 4 14 7 E - 0,4
09.07.2020 17:00:00 11,1 4,8 13 7 18 10 W - 0,1
09.07.2020 16:00:00 10,6 6,7 11 6 22 12 SSW - 0,0
09.07.2020 15:00:00 14,1 3,6 11 6 24 13 S - 0,0
09.07.2020 14:00:00 12,7 2,9 13 7 21 12 WSW - 0,0
09.07.2020 13:00:00 13,3 0,7 13 7 23 13 NW - 0,0
09.07.2020 12:00:00 13,4 3,5 3 2 16 8 S - 0,0
09.07.2020 11:00:00 12,5 2,4 5 3 10 5 SE - 0,0
09.07.2020 10:00:00 12,0 3,0 2 1 8 5 NNW - 0,0
09.07.2020 09:00:00 9,7 3,9 3 2 7 4 ENE - 0,0
09.07.2020 08:00:00 6,8 2,9 2 1 5 3 NNE - 0,0
09.07.2020 07:00:00 4,5 2,9 1 1 5 3 ENE - 0,0
09.07.2020 06:00:00 2,8 1,8 1 1 4 2 W - 0,0
09.07.2020 05:00:00 2,2 1,5 3 2 6 3 SE - 0,0
09.07.2020 04:00:00 1,9 0,7 3 1 5 3 S - 0,0
09.07.2020 03:00:00 3,0 1,7 3 1 8 4 N - 0,0
09.07.2020 02:00:00 3,7 2,4 3 1 7 4 E - 0,0
09.07.2020 01:00:00 3,2 2,5 3 2 5 3 S - 0,0
09.07.2020 00:00:00 2,7 1,2 3 2 6 3 SW - 0,0
08.07.2020 23:00:00 6,3 2,6 1 1 13 7 ENE - 0,0
08.07.2020 22:00:00 9,0 2,4 9 5 17 9 NNW - 0,0
08.07.2020 21:00:00 10,1 2,5 14 7 23 12 NW - 0,0
08.07.2020 20:00:00 11,3 2,9 12 7 31 17 N - 0,0
08.07.2020 19:00:00 11,9 2,4 16 8 31 17 NNW - 0,0
08.07.2020 18:00:00 13,7 2,3 13 7 36 20 NNW - 0,0
08.07.2020 17:00:00 12,8 2,4 14 7 27 15 NNW - 0,0
08.07.2020 16:00:00 12,4 2,9 18 10 31 17 NNW - 0,0
08.07.2020 15:00:00 12,1 2,0 12 7 32 17 N - 0,0
08.07.2020 14:00:00 11,5 3,3 21 11 32 17 NNW - 0,0
08.07.2020 13:00:00 12,7 1,7 11 6 28 15 WNW - 0,0
08.07.2020 12:00:00 9,8 2,9 18 10 29 16 NW - 0,0
08.07.2020 11:00:00 11,4 0,5 9 5 18 10 NE - 0,0
08.07.2020 10:00:00 10,8 1,9 8 4 17 9 NE - 0,0
08.07.2020 09:00:00 9,6 1,8 8 4 15 8 ENE - 0,0
08.07.2020 08:00:00 9,0 2,8 2 1 8 4 NNW - 0,0
08.07.2020 07:00:00 6,9 3,3 3 1 5 3 WNW - 0,0
08.07.2020 06:00:00 4,8 3,5 1 1 6 3 NNE - 0,0
08.07.2020 05:00:00 2,8 2,1 2 1 6 3 NNE - 0,0
08.07.2020 04:00:00 2,7 1,8 3 2 8 4 WSW - 0,0
08.07.2020 03:00:00 3,0 2,3 3 1 5 3 E - 0,0
08.07.2020 02:00:00 3,4 2,4 4 2 7 4 W - 0,0
08.07.2020 01:00:00 5,2 3,5 4 2 7 4 W - 0,0
08.07.2020 00:00:00 5,8 3,8 2 1 11 6 NW - 0,0
07.07.2020 23:00:00 7,2 3,5 3 2 18 10 NNE - 0,0
07.07.2020 22:00:00 8,0 3,1 10 6 19 11 - - 0,0
07.07.2020 21:00:00 8,9 3,7 9 5 27 15 NNW - 0,0
07.07.2020 20:00:00 8,6 4,0 11 6 28 15 NNW - 0,0
07.07.2020 19:00:00 10,5 2,6 12 6 36 20 N - 0,0
07.07.2020 18:00:00 11,0 2,8 21 11 - - NNW - 0,0
07.07.2020 17:00:00 12,9 2,8 19 10 37 20 NNW - 0,0
07.07.2020 16:00:00 12,4 3,6 14 8 31 17 N - 0,0
07.07.2020 15:00:00 12,3 3,0 11 6 31 17 NNE - 0,0
07.07.2020 14:00:00 11,4 1,9 13 7 35 19 NNW - 0,0
07.07.2020 13:00:00 11,3 2,4 14 7 28 15 NNW - 0,0
07.07.2020 12:00:00 10,9 2,2 13 7 25 14 NNW - 0,0
07.07.2020 11:00:00 9,0 2,6 11 6 29 15 N - 0,0
07.07.2020 10:00:00 9,4 2,3 13 7 26 14 N - 0,0
07.07.2020 09:00:00 8,5 3,0 6 4 22 12 N - 0,0
07.07.2020 08:00:00 7,7 3,2 10 5 24 13 NW - 0,0
07.07.2020 07:00:00 7,3 3,5 5 3 9 5 ENE - 0,0
07.07.2020 06:00:00 6,1 4,1 4 2 7 4 SSW - 0,0
07.07.2020 05:00:00 5,5 4,3 4 2 7 4 W - 0,0
07.07.2020 04:00:00 5,3 4,1 3 2 7 4 S - 0,0
07.07.2020 03:00:00 6,3 4,1 4 2 8 5 W - 0,0
07.07.2020 02:00:00 6,5 3,8 3 2 13 7 WNW - 0,0
07.07.2020 01:00:00 7,3 3,5 5 3 19 10 N - 0,0
07.07.2020 00:00:00 7,3 3,7 8 4 19 11 ENE - 0,0
06.07.2020 23:00:00 7,5 4,5 8 4 30 16 E - 0,0
06.07.2020 22:00:00 8,1 4,1 11 6 26 14 WNW - 0,0
06.07.2020 21:00:00 8,2 4,4 18 10 53 28 NNW - 0,0
06.07.2020 20:00:00 8,5 4,9 30 16 47 26 NW - 0,0
06.07.2020 19:00:00 8,8 5,7 19 10 37 20 WNW - 2,4
06.07.2020 18:00:00 9,1 5,8 13 7 32 18 N - 0,1
06.07.2020 17:00:00 8,4 3,7 19 11 37 20 NNW - 0,2
06.07.2020 16:00:00 9,8 3,8 12 6 48 26 N - 0,0
06.07.2020 15:00:00 9,5 3,9 26 14 49 26 NNW - 0,0
06.07.2020 14:00:00 10,3 5,1 21 12 42 23 NNW - 0,0
06.07.2020 13:00:00 10,2 5,2 17 9 36 19 NNW - 0,0
06.07.2020 12:00:00 9,6 6,2 13 7 34 18 NNW - 0,1
06.07.2020 11:00:00 9,8 7,1 13 7 26 14 NNW - 0,2
06.07.2020 10:00:00 9,1 6,7 3 1 17 9 NNW - 1,0
06.07.2020 09:00:00 8,9 6,2 9 5 16 8 NW - 0,6
06.07.2020 08:00:00 8,4 6,2 9 5 19 10 NNW - 0,4
06.07.2020 07:00:00 7,9 6,5 5 3 12 7 N - 2,0
06.07.2020 06:00:00 7,8 6,7 3 1 16 8 E - 0,6
06.07.2020 05:00:00 7,8 6,4 9 5 17 9 - - 0,4
06.07.2020 04:00:00 7,8 6,9 4 2 8 5 N - 0,2
06.07.2020 03:00:00 7,7 7,0 2 1 7 4 SSW - 0,5
06.07.2020 02:00:00 8,1 6,6 3 2 6 4 NNE - 0,1
06.07.2020 01:00:00 8,3 7,2 2 1 7 4 E - 0,2
06.07.2020 00:00:00 8,5 7,3 4 2 10 5 NNW - 0,2
05.07.2020 23:00:00 8,8 7,2 3 2 10 5 N - 0,2
05.07.2020 22:00:00 9,1 7,7 3 1 16 8 E - 0,5
05.07.2020 21:00:00 9,1 7,5 5 3 20 11 ENE - 1,0
05.07.2020 20:00:00 9,3 7,4 12 7 28 15 NE - 2,1
05.07.2020 19:00:00 9,5 7,3 11 6 24 13 NE - 2,1
05.07.2020 18:00:00 9,5 7,5 7 4 21 11 ENE - 1,7
05.07.2020 17:00:00 9,7 7,1 6 4 24 13 ENE - 1,3
05.07.2020 16:00:00 10,3 7,0 8 4 23 12 E - 0,8
05.07.2020 15:00:00 11,0 6,9 5 3 27 14 E - 0,0

tt = temperature
td = dewpoint
ff = wind speed
fx = gusts
dd = wind direction
ppp = reduced air pressure
rr = precipitation

Next stations